Search for airport 
image banner adimage banner adimage banner ad
image banner ad

CA77 - Ridgecrest Community Hospital

Located in Ridgecrest, United States

ICAO - CA77, IATA -

Data provided by Airmate  

General information

Coordinates: N35°38'25" W117°40'20"
Elevation is 2290 feet MSL.
Magnetic variation is 14° East
View others Airports in California

Operational data

Special qualification required
Current time UTC:
Current local time:
METAR: KNID 291956Z VRB04KT 10SM FEW120 SCT180 BKN280 38/09 A2994 RMK AO2 SLP108 T03830089 $
TAF: TAF KNID 2915/3015 VRB04KT 9999 FEW110 BKN150 BKN220 QNH2992INS BECMG 2918/2920 16007KT 9999 FEW110 SCT160 BKN250 QNH2987INS TS DSNT OMTNS BECMG 2920/2922 19009G16KT 9999 VCSHRA SCT100 SCT170 BKN250 QNH2982INS WND 150V230 TS OMTNS TEMPO 2923/3002 VRB15G25KT 9999 VCTS FEWCB080 BKN100 BKN170 BECMG 3002/3004 31010G16KT 9999 NSW FEW130 FEW170 QNH2985INS WND 24008KT AFT 3008 T41/2923Z T26/3013Z
View NOTAMs / SUP AIP / TFR affecting this airport [VIEW]
Communications frequencies: [VIEW]

Runways:

Airport contact information

Address: Ridgecrest United States

Satellite view of CA77